Time;durP1;ratioP1;P1;durP2;ratioP2;P2;SDS_P1;SDS_P2;PMS_P1;PMS_P2;Temp;Humidity;BMP_temperature;BMP_pressure;BME280_temperature;BME280_humidity;BME280_pressure;Samples;Min_cycle;Max_cycle;Signal;HPM_P1;HPM_P2
2022/01/06 00:00:12;;;;;;;15.75;3.17;;;3.40;99.90;;;;;;4895445;29;20071;-80
2022/01/06 00:02:39;;;;;;;13.77;2.17;;;3.30;99.90;;;;;;4894686;29;20077;-81
2022/01/06 00:05:07;;;;;;;16.40;2.33;;;3.20;99.90;;;;;;4879753;29;20075;-79
2022/01/06 00:07:32;;;;;;;17.58;2.03;;;3.20;99.90;;;;;;4895932;29;20064;-79
2022/01/06 00:09:59;;;;;;;14.30;1.98;;;3.20;99.90;;;;;;4895431;29;20543;-79
2022/01/06 00:12:35;;;;;;;15.55;2.35;;;3.20;99.90;;;;;;4896058;29;20055;-83
2022/01/06 00:25:37;;;;;;;18.58;2.60;;;3.10;99.90;;;;;;4894384;29;20056;-78
2022/01/06 00:28:03;;;;;;;21.20;3.40;;;3.10;99.90;;;;;;4895485;29;20380;-77
2022/01/06 00:30:29;;;;;;;16.25;2.60;;;3.00;99.90;;;;;;4892559;29;20414;-78
2022/01/06 00:32:55;;;;;;;19.67;2.55;;;3.00;99.90;;;;;;4894243;29;20060;-78
2022/01/06 00:35:21;;;;;;;18.95;2.92;;;3.00;99.90;;;;;;4895011;29;20071;-78
2022/01/06 00:37:46;;;;;;;18.05;2.50;;;2.90;99.90;;;;;;4894760;29;20079;-78
2022/01/06 00:40:12;;;;;;;20.05;2.53;;;2.90;99.90;;;;;;4879701;29;20076;-78
2022/01/06 00:42:39;;;;;;;13.68;1.70;;;2.90;99.90;;;;;;4878904;29;20056;-78
2022/01/06 00:45:05;;;;;;;20.98;2.90;;;2.90;99.90;;;;;;4863185;29;20045;-78
2022/01/06 00:47:31;;;;;;;14.15;1.70;;;2.90;99.90;;;;;;4894150;29;20406;-78
2022/01/06 00:49:57;;;;;;;14.45;1.60;;;2.90;99.90;;;;;;4879248;29;20063;-78
2022/01/06 00:52:22;;;;;;;15.43;1.67;;;2.80;99.90;;;;;;4894825;29;20104;-78
2022/01/06 00:54:48;;;;;;;11.48;1.98;;;2.90;99.90;;;;;;4894435;29;20092;-78
2022/01/06 00:57:14;;;;;;;15.82;2.28;;;2.80;99.90;;;;;;4895031;29;20052;-78
2022/01/06 00:59:39;;;;;;;12.52;1.92;;;2.80;99.90;;;;;;4878887;29;20049;-78
2022/01/06 01:02:05;;;;;;;13.20;1.65;;;2.80;99.90;;;;;;4877937;29;20052;-79
2022/01/06 01:04:31;;;;;;;13.50;1.52;;;2.80;99.90;;;;;;4878858;29;20044;-83
2022/01/06 01:06:56;;;;;;;10.02;1.55;;;2.90;99.90;;;;;;4879330;29;20498;-78
2022/01/06 01:09:22;;;;;;;14.18;1.75;;;2.90;99.90;;;;;;4895085;29;20048;-78
2022/01/06 01:11:48;;;;;;;16.05;1.55;;;3.00;99.90;;;;;;4893327;29;20047;-78
2022/01/06 01:14:18;;;;;;;18.67;3.53;;;3.10;99.90;;;;;;4878092;29;20505;-77
2022/01/06 01:16:57;;;;;;;13.77;1.92;;;3.10;99.90;;;;;;4894067;29;20060;-79
2022/01/06 01:19:24;;;;;;;10.20;1.63;;;3.10;99.90;;;;;;4894502;29;20095;-78
2022/01/06 01:21:51;;;;;;;13.23;1.95;;;3.20;99.90;;;;;;4894659;29;20048;-78
2022/01/06 01:24:17;;;;;;;18.85;2.13;;;3.10;99.90;;;;;;4878788;29;20044;-78
2022/01/06 01:26:43;;;;;;;15.27;1.67;;;3.00;99.90;;;;;;4878776;29;20127;-78
2022/01/06 01:29:13;;;;;;;10.82;2.33;;;3.10;99.90;;;;;;4895295;29;20139;-77
2022/01/06 01:31:44;;;;;;;16.00;1.48;;;3.10;99.90;;;;;;4897762;29;20110;-79
2022/01/06 01:34:12;;;;;;;16.02;1.48;;;3.10;99.90;;;;;;4884084;29;20431;-80
2022/01/06 01:36:38;;;;;;;11.32;2.08;;;3.10;99.90;;;;;;4914065;29;20052;-78
2022/01/06 01:39:06;;;;;;;17.25;2.35;;;3.00;99.90;;;;;;4895514;29;20055;-78
2022/01/06 01:41:32;;;;;;;12.20;2.28;;;3.10;99.90;;;;;;4896598;29;20044;-78
2022/01/06 01:43:58;;;;;;;16.95;1.83;;;3.10;99.90;;;;;;4897073;29;20044;-78
2022/01/06 01:46:29;;;;;;;17.63;3.38;;;2.90;99.90;;;;;;4874685;29;20060;-78
2022/01/06 01:51:36;;;;;;;14.05;1.83;;;2.70;99.90;;;;;;4893659;29;20415;-83
2022/01/06 01:54:02;;;;;;;12.88;2.20;;;2.70;99.90;;;;;;4897338;29;20048;-78
2022/01/06 01:56:28;;;;;;;11.95;1.90;;;2.70;99.90;;;;;;4881180;29;20052;-78
2022/01/06 01:58:54;;;;;;;14.73;2.42;;;2.70;99.90;;;;;;4896706;29;20095;-78
2022/01/06 02:01:20;;;;;;;12.43;1.80;;;2.70;99.90;;;;;;4900018;29;20082;-78
2022/01/06 02:03:45;;;;;;;10.63;1.42;;;2.70;99.90;;;;;;4896299;29;20498;-79
2022/01/06 02:06:11;;;;;;;12.25;1.90;;;2.60;99.90;;;;;;4913544;29;20486;-80
2022/01/06 02:08:37;;;;;;;18.95;2.20;;;2.60;99.90;;;;;;4895895;29;20039;-80
2022/01/06 02:11:02;;;;;;;13.35;1.70;;;2.60;99.90;;;;;;4881670;29;20091;-78
2022/01/06 02:13:29;;;;;;;11.80;1.50;;;2.60;99.90;;;;;;4896015;29;20554;-77
2022/01/06 02:15:58;;;;;;;13.50;2.03;;;2.60;99.90;;;;;;4906980;29;20044;-77
2022/01/06 02:18:23;;;;;;;17.88;2.88;;;2.70;99.90;;;;;;4906035;29;20048;-78
2022/01/06 02:20:49;;;;;;;11.25;1.60;;;2.80;99.90;;;;;;4901653;29;20055;-79
2022/01/06 02:23:15;;;;;;;12.40;1.90;;;2.70;99.90;;;;;;4881081;29;20159;-77
2022/01/06 02:25:40;;;;;;;15.93;2.53;;;2.70;99.90;;;;;;4899151;29;20131;-81
2022/01/06 02:28:06;;;;;;;20.83;2.13;;;2.90;99.90;;;;;;4888238;29;20070;-80
2022/01/06 02:30:34;;;;;;;11.10;1.73;;;2.80;99.90;;;;;;4897212;29;20159;-78
2022/01/06 02:33:01;;;;;;;19.48;2.30;;;2.80;99.90;;;;;;4896565;29;20048;-77
2022/01/06 02:35:27;;;;;;;16.80;2.17;;;2.80;99.90;;;;;;4897304;29;20495;-78
2022/01/06 02:37:54;;;;;;;18.92;2.00;;;2.70;99.90;;;;;;4881130;29;20136;-77
2022/01/06 02:40:22;;;;;;;15.68;2.97;;;2.70;99.90;;;;;;4897904;29;20062;-78
2022/01/06 02:42:52;;;;;;;14.85;1.90;;;2.70;99.90;;;;;;4896890;29;20052;-77
2022/01/06 02:45:19;;;;;;;16.15;2.22;;;2.60;99.90;;;;;;4897298;29;20049;-77
2022/01/06 02:47:46;;;;;;;18.08;2.75;;;2.60;99.90;;;;;;4896945;29;20735;-83
2022/01/06 02:50:13;;;;;;;19.02;2.45;;;2.70;99.90;;;;;;4897142;29;20053;-77
2022/01/06 02:52:39;;;;;;;13.38;1.92;;;2.70;99.90;;;;;;4896938;29;20053;-78
2022/01/06 02:55:07;;;;;;;18.67;2.55;;;2.70;99.90;;;;;;4896824;29;20067;-81
2022/01/06 02:57:32;;;;;;;15.30;1.92;;;2.70;99.90;;;;;;4898042;29;20103;-77
2022/01/06 02:59:58;;;;;;;21.73;2.55;;;2.60;99.90;;;;;;4897242;29;20048;-77
2022/01/06 03:02:24;;;;;;;21.90;3.05;;;2.70;99.90;;;;;;4881122;29;20041;-78
2022/01/06 03:04:50;;;;;;;14.38;2.17;;;2.60;99.90;;;;;;4896534;29;20049;-77
2022/01/06 03:07:16;;;;;;;20.48;2.67;;;2.60;99.90;;;;;;4898087;29;20446;-79
2022/01/06 03:09:43;;;;;;;22.00;3.20;;;2.50;99.90;;;;;;4896428;29;20076;-77
2022/01/06 03:12:25;;;;;;;12.75;1.77;;;2.30;99.90;;;;;;4898051;29;20750;-76
2022/01/06 03:14:50;;;;;;;17.25;2.35;;;2.30;99.90;;;;;;4881806;29;20060;-78
2022/01/06 03:17:16;;;;;;;16.15;2.20;;;2.20;99.90;;;;;;4897279;29;20462;-78
2022/01/06 03:19:42;;;;;;;11.20;2.42;;;2.10;99.90;;;;;;4896702;29;20053;-78
2022/01/06 03:22:08;;;;;;;19.20;3.00;;;2.10;99.90;;;;;;4880202;29;20204;-78
2022/01/06 03:24:34;;;;;;;21.10;2.45;;;2.00;99.90;;;;;;4896130;29;20391;-78
2022/01/06 03:27:00;;;;;;;24.63;2.03;;;1.90;99.90;;;;;;4880798;29;20072;-76
2022/01/06 03:29:25;;;;;;;15.60;3.17;;;1.90;99.90;;;;;;4901306;29;20068;-78
2022/01/06 03:31:51;;;;;;;17.05;2.13;;;1.80;99.90;;;;;;4871584;29;20052;-83
2022/01/06 03:34:17;;;;;;;15.70;2.25;;;1.70;99.90;;;;;;4892913;29;20044;-77
2022/01/06 03:36:43;;;;;;;20.30;2.35;;;1.70;99.90;;;;;;4915731;29;20503;-77
2022/01/06 03:39:09;;;;;;;22.58;4.95;;;1.70;99.90;;;;;;4900069;29;20558;-78
2022/01/06 03:41:35;;;;;;;20.95;3.00;;;1.70;99.90;;;;;;4898728;29;20036;-77
2022/01/06 03:44:00;;;;;;;25.92;4.53;;;1.70;99.90;;;;;;4915150;29;20088;-78
2022/01/06 03:46:26;;;;;;;15.65;2.40;;;1.60;99.90;;;;;;4898867;29;20064;-78
2022/01/06 03:48:52;;;;;;;20.00;3.33;;;1.70;99.90;;;;;;4898741;29;20048;-82
2022/01/06 03:51:20;;;;;;;19.65;3.35;;;1.60;99.90;;;;;;4915846;29;20379;-78
2022/01/06 03:53:47;;;;;;;25.80;3.08;;;1.50;99.90;;;;;;4877473;29;20056;-78
2022/01/06 03:56:13;;;;;;;17.17;2.75;;;1.60;99.90;;;;;;4905826;29;20080;-77
2022/01/06 03:58:40;;;;;;;18.65;2.60;;;1.50;99.90;;;;;;4916091;29;20044;-77
2022/01/06 04:01:08;;;;;;;18.38;3.25;;;1.60;99.90;;;;;;4883513;29;20060;-78
2022/01/06 04:03:34;;;;;;;15.60;2.08;;;1.50;99.90;;;;;;4882626;29;20464;-78
2022/01/06 04:06:00;;;;;;;18.08;2.33;;;1.50;99.90;;;;;;4897424;29;20130;-77
2022/01/06 04:08:25;;;;;;;15.57;2.17;;;1.50;99.90;;;;;;4898410;29;20459;-78
2022/01/06 04:10:51;;;;;;;13.65;1.98;;;1.50;99.90;;;;;;4915349;29;20135;-78
2022/01/06 04:13:17;;;;;;;17.38;2.85;;;1.40;99.90;;;;;;4907196;29;20111;-77
2022/01/06 04:15:44;;;;;;;13.98;2.28;;;1.40;99.90;;;;;;4883532;29;20044;-77
2022/01/06 04:18:10;;;;;;;17.27;3.65;;;1.30;99.90;;;;;;4898494;29;20088;-77
2022/01/06 04:20:36;;;;;;;19.48;2.20;;;1.30;99.90;;;;;;4898723;29;20088;-78
2022/01/06 04:23:01;;;;;;;16.75;2.13;;;1.30;99.90;;;;;;4867104;29;20048;-78
2022/01/06 04:25:27;;;;;;;13.77;2.20;;;1.40;99.90;;;;;;4915420;29;20453;-77
2022/01/06 04:27:53;;;;;;;14.95;2.17;;;1.20;99.90;;;;;;4916008;29;20529;-77
2022/01/06 04:30:19;;;;;;;10.63;2.05;;;1.10;99.90;;;;;;4894017;29;20575;-77
2022/01/06 04:32:44;;;;;;;13.90;1.83;;;1.00;99.90;;;;;;4898810;29;20056;-78
2022/01/06 04:35:11;;;;;;;16.08;2.05;;;0.90;99.90;;;;;;4883003;29;20498;-77
2022/01/06 04:37:37;;;;;;;15.85;2.38;;;0.70;99.90;;;;;;4915143;29;20577;-76
2022/01/06 04:40:04;;;;;;;18.10;2.45;;;0.70;99.90;;;;;;4898648;29;20044;-77
2022/01/06 04:42:30;;;;;;;15.32;2.05;;;0.60;99.90;;;;;;4909871;29;20056;-80
2022/01/06 04:44:56;;;;;;;13.57;2.03;;;0.50;99.90;;;;;;4915446;29;20056;-78
2022/01/06 04:47:21;;;;;;;14.80;2.63;;;0.40;99.90;;;;;;4914408;29;20059;-77
2022/01/06 04:49:47;;;;;;;22.65;2.60;;;0.30;99.90;;;;;;4897934;29;20059;-77
2022/01/06 04:52:13;;;;;;;17.40;1.70;;;0.30;99.90;;;;;;4897485;29;20043;-77
2022/01/06 04:54:39;;;;;;;15.32;2.40;;;0.30;99.90;;;;;;4901046;29;20075;-78
2022/01/06 04:57:04;;;;;;;16.85;1.65;;;0.30;99.90;;;;;;4897348;29;20585;-83
2022/01/06 04:59:30;;;;;;;18.20;2.63;;;0.30;99.90;;;;;;4915383;29;20136;-77
2022/01/06 05:01:56;;;;;;;15.82;2.55;;;0.30;99.90;;;;;;4897619;29;20083;-77
2022/01/06 05:04:21;;;;;;;13.90;1.65;;;0.20;99.90;;;;;;4897595;29;20127;-78
2022/01/06 05:06:47;;;;;;;16.08;2.00;;;0.20;99.90;;;;;;4883271;29;20102;-77
2022/01/06 05:09:15;;;;;;;18.60;4.13;;;0.20;99.90;;;;;;4888485;29;20056;-77
2022/01/06 05:11:40;;;;;;;16.90;2.63;;;0.20;99.90;;;;;;4881695;29;20066;-77
2022/01/06 05:14:06;;;;;;;31.52;3.33;;;0.20;99.90;;;;;;4882244;29;20052;-84
2022/01/06 05:16:32;;;;;;;16.40;2.40;;;0.20;99.90;;;;;;4898025;29;20115;-77
2022/01/06 05:18:57;;;;;;;11.35;2.53;;;0.20;99.90;;;;;;4898813;29;20060;-77
2022/01/06 05:21:23;;;;;;;18.13;1.85;;;0.30;99.90;;;;;;4880806;29;20059;-78
2022/01/06 05:23:50;;;;;;;15.70;1.85;;;0.40;99.90;;;;;;4866185;29;20047;-77
2022/01/06 05:26:15;;;;;;;16.75;2.22;;;0.50;99.90;;;;;;4895903;29;20064;-79
2022/01/06 05:28:41;;;;;;;19.30;2.45;;;0.50;99.90;;;;;;4896228;29;20055;-81
2022/01/06 05:31:07;;;;;;;13.65;1.80;;;0.50;99.90;;;;;;4878651;29;20092;-84
2022/01/06 05:33:32;;;;;;;17.83;2.28;;;0.40;99.90;;;;;;4881552;29;20487;-77
2022/01/06 05:35:58;;;;;;;17.90;1.90;;;0.50;99.90;;;;;;4901206;29;20907;-78
2022/01/06 05:38:24;;;;;;;16.80;1.58;;;0.50;99.90;;;;;;4866173;29;20063;-79
2022/01/06 05:40:50;;;;;;;16.50;2.17;;;0.50;99.90;;;;;;4896584;29;20048;-78
2022/01/06 05:43:15;;;;;;;16.65;1.90;;;0.50;99.90;;;;;;4895868;29;20063;-79
2022/01/06 05:45:41;;;;;;;23.75;2.22;;;0.60;99.90;;;;;;4896796;29;20048;-78
2022/01/06 05:48:07;;;;;;;9.52;1.52;;;0.50;99.90;;;;;;4879974;29;20505;-78
2022/01/06 05:50:33;;;;;;;16.67;2.58;;;0.50;99.90;;;;;;4896897;29;20127;-78
2022/01/06 05:52:59;;;;;;;14.88;1.90;;;0.50;99.90;;;;;;4897850;29;20090;-78
2022/01/06 05:55:24;;;;;;;22.40;3.17;;;0.50;99.90;;;;;;4892761;29;20044;-78
2022/01/06 05:57:50;;;;;;;20.23;2.60;;;0.50;99.90;;;;;;4913022;29;20111;-78
2022/01/06 06:00:16;;;;;;;18.15;1.80;;;0.50;99.90;;;;;;4896480;29;20557;-77
2022/01/06 06:02:42;;;;;;;14.30;1.92;;;0.40;99.90;;;;;;4896385;29;20048;-77
2022/01/06 06:05:08;;;;;;;22.10;2.25;;;0.50;99.90;;;;;;4896953;29;20055;-77
2022/01/06 06:07:34;;;;;;;19.83;2.10;;;0.30;99.90;;;;;;4913337;29;20122;-77
2022/01/06 06:09:59;;;;;;;13.05;2.33;;;0.30;99.90;;;;;;4910103;29;20053;-78
2022/01/06 06:12:25;;;;;;;16.48;2.88;;;0.20;99.90;;;;;;4919597;29;20056;-79
2022/01/06 06:14:51;;;;;;;21.75;2.20;;;0.20;99.90;;;;;;4900065;29;20131;-79
2022/01/06 06:17:16;;;;;;;15.32;1.70;;;0.20;99.90;;;;;;4900588;29;20051;-78
2022/01/06 06:19:42;;;;;;;16.42;2.58;;;0.20;99.90;;;;;;4913293;29;20044;-78
2022/01/06 06:22:10;;;;;;;13.85;1.90;;;0.20;99.90;;;;;;4898751;29;20052;-77
2022/01/06 06:24:36;;;;;;;18.10;2.15;;;0.20;99.90;;;;;;4897703;29;20044;-77
2022/01/06 06:27:03;;;;;;;17.40;2.47;;;0.20;99.90;;;;;;4914093;29;20457;-79
2022/01/06 06:29:29;;;;;;;20.00;2.30;;;0.30;99.90;;;;;;4905777;29;20067;-80
2022/01/06 06:31:55;;;;;;;14.57;2.15;;;0.30;99.90;;;;;;4899041;29;20139;-78
2022/01/06 06:34:21;;;;;;;16.42;1.75;;;0.30;99.90;;;;;;4905958;29;20108;-78
2022/01/06 06:36:47;;;;;;;24.98;2.63;;;0.30;99.90;;;;;;4897737;29;20044;-76
2022/01/06 06:39:13;;;;;;;14.48;2.90;;;0.20;99.90;;;;;;4879716;29;20048;-81
2022/01/06 06:41:38;;;;;;;15.23;2.08;;;0.30;99.90;;;;;;4879015;29;20537;-80
2022/01/06 06:44:04;;;;;;;14.50;2.67;;;0.20;99.90;;;;;;4884032;29;20052;-79
2022/01/06 06:46:30;;;;;;;15.85;2.45;;;0.20;99.90;;;;;;4882155;29;20095;-80
2022/01/06 06:48:56;;;;;;;14.55;1.70;;;0.30;99.90;;;;;;4892740;29;20422;-80
2022/01/06 06:51:22;;;;;;;16.83;1.77;;;0.30;99.90;;;;;;4883317;29;20062;-78
2022/01/06 06:53:47;;;;;;;14.07;2.17;;;0.30;99.90;;;;;;4903266;29;20052;-75
2022/01/06 06:56:13;;;;;;;16.73;2.15;;;0.30;99.90;;;;;;4904121;29;20478;-78
2022/01/06 06:58:39;;;;;;;18.55;3.35;;;0.20;99.90;;;;;;4899191;29;20036;-78
2022/01/06 07:01:04;;;;;;;14.55;2.35;;;0.30;99.90;;;;;;4894979;29;20056;-77
2022/01/06 07:03:30;;;;;;;19.08;2.20;;;0.20;99.90;;;;;;4880556;29;20056;-79
2022/01/06 07:05:56;;;;;;;17.70;2.33;;;0.30;99.90;;;;;;4913792;29;20064;-78
2022/01/06 07:08:21;;;;;;;25.40;3.45;;;0.20;99.90;;;;;;4881058;29;20080;-83
2022/01/06 07:10:47;;;;;;;17.80;1.95;;;0.20;99.90;;;;;;4914558;29;20054;-78
2022/01/06 07:13:16;;;;;;;9.98;1.70;;;0.10;99.90;;;;;;4869457;29;20403;-78
2022/01/06 07:15:46;;;;;;;16.30;2.35;;;0.10;99.90;;;;;;4884553;29;20513;-78
2022/01/06 07:18:12;;;;;;;16.85;2.20;;;0.00;99.90;;;;;;4916170;29;20090;-79
2022/01/06 07:20:38;;;;;;;26.73;2.50;;;0.00;99.90;;;;;;4916507;29;20076;-78
2022/01/06 07:23:04;;;;;;;16.60;2.92;;;-0.10;99.90;;;;;;4900394;29;20098;-78
2022/01/06 07:25:30;;;;;;;19.20;2.67;;;-0.10;99.90;;;;;;4899331;29;20060;-78
2022/01/06 07:27:56;;;;;;;17.67;2.35;;;-0.20;99.90;;;;;;4907335;29;20048;-79
2022/01/06 07:30:22;;;;;;;24.02;3.60;;;-0.30;99.90;;;;;;4896967;29;20139;-78
2022/01/06 07:32:50;;;;;;;19.65;2.40;;;-0.30;99.90;;;;;;4896743;29;20557;-78
2022/01/06 07:35:23;;;;;;;19.13;4.35;;;-0.30;99.90;;;;;;4881606;29;20056;-78
2022/01/06 07:37:49;;;;;;;13.15;3.03;;;-0.40;99.90;;;;;;4898688;29;20495;-79
2022/01/06 07:40:16;;;;;;;23.67;2.78;;;-0.40;99.90;;;;;;4898531;29;20051;-80
2022/01/06 07:42:42;;;;;;;17.88;2.67;;;-0.40;99.90;;;;;;4898017;29;20075;-80
2022/01/06 07:45:08;;;;;;;15.73;2.13;;;-0.40;99.90;;;;;;4914808;29;20086;-78
2022/01/06 07:47:36;;;;;;;28.23;2.60;;;-0.30;99.90;;;;;;4898635;29;20087;-78
2022/01/06 07:50:04;;;;;;;17.58;2.65;;;-0.30;99.90;;;;;;4914588;29;20467;-79
2022/01/06 07:52:29;;;;;;;17.65;2.38;;;-0.20;99.90;;;;;;4897992;29;20060;-79
2022/01/06 07:54:55;;;;;;;19.90;2.47;;;-0.20;99.90;;;;;;4914789;29;20075;-77
2022/01/06 07:57:21;;;;;;;15.70;2.42;;;-0.20;99.90;;;;;;4898633;29;20143;-79
2022/01/06 07:59:47;;;;;;;27.05;3.33;;;-0.10;99.90;;;;;;4929739;29;20123;-78
2022/01/06 08:02:14;;;;;;;16.60;2.55;;;0.00;99.90;;;;;;4898672;29;20127;-78
2022/01/06 08:04:40;;;;;;;13.63;2.97;;;0.00;99.90;;;;;;4898224;29;20056;-78
2022/01/06 08:07:06;;;;;;;14.60;2.38;;;0.10;99.90;;;;;;4914228;29;20588;-80
2022/01/06 08:09:32;;;;;;;20.80;2.63;;;0.20;99.90;;;;;;4897716;29;20087;-78
2022/01/06 08:11:58;;;;;;;16.40;3.58;;;0.30;99.90;;;;;;4903544;29;20044;-78
2022/01/06 08:14:24;;;;;;;19.80;2.53;;;0.30;99.90;;;;;;4898677;29;20062;-80
2022/01/06 08:16:49;;;;;;;19.85;2.80;;;0.30;99.90;;;;;;4897581;29;20654;-79
2022/01/06 08:19:16;;;;;;;16.80;2.35;;;0.40;99.90;;;;;;4914607;29;20052;-79
2022/01/06 08:21:41;;;;;;;22.63;3.13;;;0.40;99.90;;;;;;4909613;29;20045;-79
2022/01/06 08:24:07;;;;;;;22.20;2.67;;;0.50;99.90;;;;;;4898876;29;20103;-79
2022/01/06 08:26:33;;;;;;;23.38;2.88;;;0.50;99.90;;;;;;4896668;29;20048;-80
2022/01/06 08:28:59;;;;;;;17.13;2.42;;;0.50;99.90;;;;;;4896953;29;20486;-76
2022/01/06 08:31:24;;;;;;;15.35;2.20;;;0.50;99.90;;;;;;4889517;29;20529;-78
2022/01/06 08:33:50;;;;;;;17.27;4.20;;;0.60;99.90;;;;;;4914310;29;20044;-78
2022/01/06 08:36:16;;;;;;;26.80;5.32;;;0.60;99.90;;;;;;4905418;29;20064;-80
2022/01/06 08:38:42;;;;;;;17.65;2.15;;;0.60;99.90;;;;;;4914719;29;20047;-79
2022/01/06 08:41:08;;;;;;;23.80;2.08;;;0.60;99.90;;;;;;4913916;29;20078;-79
2022/01/06 08:43:34;;;;;;;23.30;3.58;;;0.60;99.90;;;;;;4909679;29;20060;-82
2022/01/06 08:46:00;;;;;;;24.33;4.32;;;0.60;99.90;;;;;;4897974;29;20094;-79
2022/01/06 08:48:27;;;;;;;19.73;3.38;;;0.60;99.90;;;;;;4914374;29;20060;-79
2022/01/06 08:50:53;;;;;;;19.70;2.45;;;0.60;99.90;;;;;;4903479;29;20064;-79
2022/01/06 08:53:19;;;;;;;20.73;2.75;;;0.70;99.90;;;;;;4899610;29;20048;-79
2022/01/06 08:55:46;;;;;;;24.73;3.47;;;0.70;99.90;;;;;;4900710;29;20056;-79
2022/01/06 08:58:16;;;;;;;20.33;2.50;;;0.70;99.90;;;;;;4896791;29;20048;-79
2022/01/06 09:00:43;;;;;;;27.95;4.20;;;0.70;99.90;;;;;;4866817;29;20052;-79
2022/01/06 09:03:10;;;;;;;21.23;3.53;;;0.70;99.90;;;;;;4914130;29;20055;-78
2022/01/06 09:05:36;;;;;;;18.75;2.53;;;0.70;99.90;;;;;;4897001;29;20052;-84
2022/01/06 09:08:03;;;;;;;13.32;2.50;;;0.80;99.90;;;;;;4901207;29;20048;-79
2022/01/06 09:10:29;;;;;;;20.88;2.38;;;0.70;99.90;;;;;;4897481;29;20064;-79
2022/01/06 09:12:55;;;;;;;20.00;3.28;;;0.80;99.90;;;;;;4897815;29;20195;-79
2022/01/06 09:15:21;;;;;;;18.85;3.70;;;0.80;99.90;;;;;;4897493;29;20135;-80
2022/01/06 09:17:47;;;;;;;20.42;4.22;;;0.90;99.90;;;;;;4913533;29;20487;-79
2022/01/06 09:20:13;;;;;;;23.63;3.80;;;1.00;99.90;;;;;;4882158;29;20486;-79
2022/01/06 09:22:43;;;;;;;17.13;2.65;;;1.00;99.90;;;;;;4892126;29;20103;-83
2022/01/06 09:25:12;;;;;;;20.60;2.78;;;1.10;99.90;;;;;;4878818;29;20052;-79
2022/01/06 09:27:39;;;;;;;15.90;2.67;;;1.10;99.90;;;;;;4885689;29;20442;-79
2022/01/06 09:30:06;;;;;;;26.25;2.47;;;1.20;99.90;;;;;;4903216;29;20052;-79
2022/01/06 09:32:32;;;;;;;24.60;4.03;;;1.30;99.90;;;;;;4896828;29;20106;-78
2022/01/06 09:34:58;;;;;;;20.55;3.58;;;1.30;99.90;;;;;;4913362;29;20119;-78
2022/01/06 09:37:24;;;;;;;15.30;2.15;;;1.30;99.90;;;;;;4900837;29;20071;-79
2022/01/06 09:39:50;;;;;;;18.38;3.17;;;1.40;99.90;;;;;;4897644;29;20048;-80
2022/01/06 09:42:17;;;;;;;14.05;2.22;;;1.50;99.90;;;;;;4896728;29;20072;-80
2022/01/06 09:44:43;;;;;;;13.88;2.65;;;1.60;99.90;;;;;;4898028;29;20063;-82
2022/01/06 09:47:09;;;;;;;19.15;2.25;;;1.60;99.90;;;;;;4913846;29;20052;-78
2022/01/06 09:49:40;;;;;;;19.45;3.30;;;1.60;99.90;;;;;;4892489;29;20058;-80
2022/01/06 09:52:07;;;;;;;14.88;2.85;;;1.60;99.90;;;;;;4915134;29;20052;-79
2022/01/06 09:54:37;;;;;;;14.50;2.40;;;1.80;99.90;;;;;;4896486;29;20119;-79
2022/01/06 09:57:03;;;;;;;14.48;2.70;;;1.80;99.90;;;;;;4912549;29;20054;-79
2022/01/06 09:59:29;;;;;;;22.13;2.80;;;1.80;99.90;;;;;;4898734;29;20083;-80
2022/01/06 10:01:55;;;;;;;19.23;2.58;;;1.80;99.90;;;;;;4912895;29;20888;-79
2022/01/06 10:04:28;;;;;;;16.65;3.13;;;1.90;99.90;;;;;;4912251;29;20078;-80
2022/01/06 10:07:08;;;;;;;16.65;2.50;;;2.00;99.90;;;;;;4897133;29;20044;-80
2022/01/06 10:09:36;;;;;;;30.05;2.67;;;2.00;99.90;;;;;;4899722;29;20052;-80
2022/01/06 10:12:11;;;;;;;20.05;3.58;;;2.10;99.90;;;;;;4921136;29;20650;-79
2022/01/06 10:14:44;;;;;;;21.13;3.65;;;2.10;99.90;;;;;;4912593;29;20040;-79
2022/01/06 10:17:15;;;;;;;20.95;4.25;;;2.10;99.90;;;;;;4898618;29;20079;-81
2022/01/06 10:19:43;;;;;;;14.65;2.72;;;2.20;99.90;;;;;;4912541;29;20171;-81
2022/01/06 10:22:13;;;;;;;21.42;2.88;;;2.30;99.90;;;;;;4908585;29;20082;-81
2022/01/06 10:24:38;;;;;;;13.38;2.97;;;2.30;99.90;;;;;;4896219;29;20483;-79
2022/01/06 10:27:07;;;;;;;13.13;2.65;;;2.30;99.90;;;;;;4912845;29;20044;-78
2022/01/06 10:29:43;;;;;;;15.23;2.15;;;2.40;99.90;;;;;;4917116;29;20127;-78
2022/01/06 10:32:15;;;;;;;19.02;2.95;;;2.50;99.90;;;;;;4886754;29;20052;-78
2022/01/06 10:34:47;;;;;;;15.27;2.78;;;2.50;99.90;;;;;;4911757;29;20070;-79
2022/01/06 10:37:30;;;;;;;22.48;4.07;;;2.60;99.90;;;;;;4926544;29;20055;-78
2022/01/06 10:40:02;;;;;;;22.77;3.67;;;2.70;99.90;;;;;;4930938;29;20067;-78
2022/01/06 10:42:30;;;;;;;22.58;2.92;;;2.80;99.90;;;;;;4886470;29;20048;-77
2022/01/06 10:45:04;;;;;;;20.08;3.00;;;2.80;99.90;;;;;;4901148;29;20107;-79
2022/01/06 10:47:36;;;;;;;14.90;2.92;;;2.90;99.90;;;;;;4900290;29;20063;-79
2022/01/06 10:50:26;;;;;;;18.60;2.83;;;2.90;99.90;;;;;;4902869;29;20463;-78
2022/01/06 10:52:59;;;;;;;19.23;3.45;;;3.00;99.90;;;;;;4883884;29;20486;-79
2022/01/06 10:55:28;;;;;;;23.80;3.30;;;3.10;99.90;;;;;;4908052;29;20052;-79
2022/01/06 10:58:01;;;;;;;19.20;3.15;;;3.20;99.90;;;;;;4899193;29;20052;-78
2022/01/06 11:00:39;;;;;;;27.05;3.97;;;3.30;99.90;;;;;;4922653;29;20052;-76
2022/01/06 11:03:12;;;;;;;16.55;3.00;;;3.40;99.90;;;;;;4907604;29;20056;-78
2022/01/06 11:05:40;;;;;;;14.52;2.90;;;3.40;99.90;;;;;;4899926;29;20398;-77
2022/01/06 11:08:07;;;;;;;21.67;2.67;;;3.50;99.90;;;;;;4905436;29;20186;-77
2022/01/06 11:10:36;;;;;;;18.80;2.95;;;3.60;99.90;;;;;;4933440;29;20401;-77
2022/01/06 11:13:02;;;;;;;16.20;3.10;;;3.70;99.90;;;;;;4918326;29;20530;-80
2022/01/06 11:15:27;;;;;;;18.40;2.28;;;3.80;99.90;;;;;;4918023;29;20051;-77
2022/01/06 11:17:54;;;;;;;14.52;2.40;;;3.90;99.90;;;;;;4912439;29;20048;-77
2022/01/06 11:20:24;;;;;;;23.45;2.83;;;3.80;99.90;;;;;;4881229;29;20100;-77
2022/01/06 11:22:53;;;;;;;20.20;2.20;;;3.90;99.90;;;;;;4905226;29;20040;-84
2022/01/06 11:26:13;;;;;;;18.95;2.63;;;4.00;99.90;;;;;;4909646;29;20091;-78
2022/01/06 11:28:40;;;;;;;15.77;3.03;;;4.00;99.90;;;;;;4883600;29;20064;-77
2022/01/06 11:31:15;;;;;;;25.38;3.72;;;4.10;99.90;;;;;;4899309;29;20159;-77
2022/01/06 11:33:42;;;;;;;18.02;3.15;;;4.10;99.90;;;;;;4925812;29;20135;-79
2022/01/06 11:36:18;;;;;;;13.57;2.30;;;4.20;99.90;;;;;;4899270;29;20104;-77
2022/01/06 11:38:48;;;;;;;18.15;2.58;;;4.30;99.90;;;;;;4899593;29;20524;-77
2022/01/06 11:41:14;;;;;;;19.02;2.75;;;4.30;99.90;;;;;;4898649;29;20100;-77
2022/01/06 11:43:42;;;;;;;15.82;3.30;;;4.40;99.90;;;;;;4884376;29;20053;-78
2022/01/06 11:46:09;;;;;;;20.90;2.55;;;4.40;99.90;;;;;;4914412;29;20052;-79
2022/01/06 11:48:53;;;;;;;17.80;2.42;;;4.50;99.90;;;;;;4883079;29;20447;-81
2022/01/06 11:51:32;;;;;;;19.17;2.80;;;4.50;99.90;;;;;;4884791;29;20056;-79
2022/01/06 11:54:11;;;;;;;16.25;3.13;;;4.60;99.90;;;;;;4899759;29;20056;-78
2022/01/06 11:56:50;;;;;;;23.33;2.90;;;4.70;99.90;;;;;;4882808;29;20056;-79
2022/01/06 11:59:28;;;;;;;19.67;2.30;;;4.70;99.90;;;;;;4897886;29;20060;-79
2022/01/06 12:01:54;;;;;;;15.90;1.70;;;4.80;99.90;;;;;;4915083;29;20052;-84
2022/01/06 12:04:22;;;;;;;19.27;2.50;;;4.80;99.90;;;;;;4901494;29;20182;-80
2022/01/06 12:06:49;;;;;;;14.10;2.40;;;4.80;99.90;;;;;;4914772;29;20056;-82
2022/01/06 12:09:15;;;;;;;22.23;2.63;;;4.90;99.90;;;;;;4899693;29;20039;-77
2022/01/06 12:11:41;;;;;;;13.85;2.17;;;5.00;99.90;;;;;;4889623;29;20044;-79
2022/01/06 12:14:08;;;;;;;16.67;2.42;;;5.00;99.90;;;;;;4913702;29;20051;-78
2022/01/06 12:16:38;;;;;;;12.93;2.28;;;5.10;99.90;;;;;;4903039;29;20398;-78
2022/01/06 12:19:16;;;;;;;21.90;2.95;;;5.10;99.90;;;;;;4896266;29;20088;-80
2022/01/06 12:21:42;;;;;;;14.55;2.67;;;5.10;99.90;;;;;;4899363;29;20047;-79
2022/01/06 12:24:10;;;;;;;19.83;3.40;;;5.10;99.90;;;;;;4894046;29;20052;-79
2022/01/06 12:26:36;;;;;;;19.55;2.40;;;5.20;99.90;;;;;;4891059;29;20589;-79
2022/01/06 12:29:07;;;;;;;12.48;1.98;;;5.20;99.90;;;;;;4886891;29;20494;-78
2022/01/06 12:31:33;;;;;;;14.50;2.08;;;5.10;99.90;;;;;;4911544;29;20060;-79
2022/01/06 12:34:01;;;;;;;13.85;2.33;;;5.20;99.90;;;;;;4898779;29;20056;-82
2022/01/06 12:36:36;;;;;;;14.30;2.13;;;5.10;99.90;;;;;;4899391;29;20063;-79
2022/01/06 12:39:07;;;;;;;13.07;1.88;;;5.10;99.90;;;;;;4897073;29;20059;-79
2022/01/06 12:41:34;;;;;;;22.85;3.03;;;5.10;99.90;;;;;;4915300;29;20131;-79
2022/01/06 12:44:00;;;;;;;13.98;2.50;;;5.20;99.90;;;;;;4883175;29;20068;-85
2022/01/06 12:46:37;;;;;;;15.10;2.50;;;5.10;99.90;;;;;;4894626;29;20056;-80
2022/01/06 12:49:08;;;;;;;12.27;3.00;;;5.10;99.90;;;;;;4895283;29;20052;-79
2022/01/06 12:51:36;;;;;;;15.93;2.63;;;5.20;99.90;;;;;;4912612;29;20522;-80
2022/01/06 12:54:17;;;;;;;14.13;2.33;;;5.20;99.90;;;;;;4895439;29;20052;-80
2022/01/06 12:56:45;;;;;;;19.10;2.33;;;5.30;99.90;;;;;;4902017;29;20048;-79
2022/01/06 12:59:16;;;;;;;16.65;3.20;;;5.30;99.90;;;;;;4894156;29;20135;-79